LGMT/MJT METAR and TAF weather

Enter ICAO airport designator
Station Type Date Time Source
LGMT METAR 2022/01/26 07:20 UTC NOAA

LGMT 260720Z 03012KT 9999 FEW020 03/M03 Q1023


Station Type Date Time Source
LGMT Decoded METAR 2022/01/26 07:20 UTC NOAA

Mytilini Airport , Greece (LGMT) 39-04N 026-36E 5M
Jan 26, 2022 - 02:20 AM EST / 2022.01.26 0720 UTC
Wind: from the NNE (030 degrees) at 14 MPH (12 KT):0
Visibility: greater than 7 mile(s):0
Sky conditions: mostly clear
Temperature: 37 F (3 C)
Dew Point: 26 F (-3 C)
Relative Humidity: 64%
Pressure (altimeter): 30.21 in. Hg (1023 hPa)
ob: LGMT 260720Z 03012KT 9999 FEW020 03/M03 Q1023
cycle: 7

Station Type Date Time Source
LGMT TAF 2012/09/21 03:06 UTC NOAA

TAF LGMT 210200Z 2103/2115 VRB05KT 9999 SCT020
BECMG 2103/2105 30015KT PROB30
TEMPO 2103/2106 7000 RA SCT018 BKN030
BECMG 2107/2109 29012KT

Example: see airport list